createdAt,value
2018-07-05T00:00:00.146Z,15.59
2018-07-05T00:01:00.149Z,15.59
2018-07-05T00:02:00.132Z,15.8
2018-07-05T00:02:59.871Z,15.74
2018-07-05T00:03:59.865Z,15.95
2018-07-05T00:05:00.127Z,15.95
2018-07-05T00:06:00.122Z,15.99
2018-07-05T00:07:00.114Z,16.08
2018-07-05T00:08:00.108Z,16.1
2018-07-05T00:09:00.103Z,16.13
2018-07-05T00:09:59.841Z,16.17
2018-07-05T00:10:59.833Z,16.17
2018-07-05T00:12:00.084Z,16.18
2018-07-05T00:12:59.827Z,16.13
2018-07-05T00:14:00.083Z,16.25
2018-07-05T00:14:59.816Z,16.27
2018-07-05T00:15:59.815Z,16.29
2018-07-05T00:16:59.813Z,16.26
2018-07-05T00:17:59.806Z,16.33
2018-07-05T00:18:59.797Z,16.33
2018-07-05T00:20:00.066Z,16.32
2018-07-05T00:20:59.794Z,16.3
2018-07-05T00:22:00.094Z,16.42
2018-07-05T00:22:59.788Z,16.39
2018-07-05T00:24:00.041Z,16.51
2018-07-05T00:25:00.061Z,16.51
2018-07-05T00:26:00.031Z,16.57
2018-07-05T00:27:00.021Z,16.51
2018-07-05T00:28:00.020Z,16.52
2018-07-05T00:29:00.010Z,16.42
2018-07-05T00:30:00.010Z,16.33
2018-07-05T00:31:00.010Z,16.36
2018-07-05T00:31:59.999Z,16.36
2018-07-05T00:32:59.485Z,16.42
2018-07-05T00:33:59.728Z,16.39
2018-07-05T00:34:59.979Z,16.33
2018-07-05T00:35:59.467Z,16.3
2018-07-05T00:36:59.748Z,16.32
2018-07-05T00:37:59.983Z,16.29
2018-07-05T00:38:59.458Z,16.3
2018-07-05T00:39:59.961Z,16.34
2018-07-05T00:40:59.702Z,16.3
2018-07-05T00:41:59.953Z,16.22
2018-07-05T00:42:59.690Z,16.27
2018-07-05T00:43:59.946Z,16.26
2018-07-05T00:44:59.944Z,16.29
2018-07-05T00:45:59.686Z,16.14
2018-07-05T00:46:59.929Z,16.11
2018-07-05T00:47:59.926Z,16.07
2018-07-05T00:48:59.689Z,16.04
2018-07-05T00:49:59.926Z,16.02
2018-07-05T00:50:59.661Z,15.99
2018-07-05T00:51:59.911Z,15.98
2018-07-05T00:52:59.908Z,15.96
2018-07-05T00:53:59.906Z,15.96
2018-07-05T00:54:59.904Z,15.99
2018-07-05T00:55:59.892Z,15.95
2018-07-05T00:56:59.888Z,15.93
2018-07-05T00:57:59.891Z,15.98
2018-07-05T00:58:59.894Z,15.95
2018-07-05T00:59:59.876Z,16.02
2018-07-05T01:00:59.872Z,15.95
2018-07-05T01:01:59.870Z,15.99
2018-07-05T01:02:59.862Z,16
2018-07-05T01:03:59.855Z,15.96
2018-07-05T01:04:59.853Z,16.02
2018-07-05T01:05:59.856Z,16.04
2018-07-05T01:06:59.845Z,16.02
2018-07-05T01:07:59.589Z,16.07
2018-07-05T01:08:59.579Z,16.02
2018-07-05T01:09:59.830Z,16
2018-07-05T01:10:59.826Z,15.92
2018-07-05T01:11:59.568Z,16.13
2018-07-05T01:12:59.820Z,16.04
2018-07-05T01:13:59.813Z,16.1
2018-07-05T01:14:59.549Z,16.06
2018-07-05T01:15:59.805Z,16.06
2018-07-05T01:16:59.799Z,16.07
2018-07-05T01:17:59.820Z,16.16
2018-07-05T01:18:59.537Z,16.16
2018-07-05T01:19:59.785Z,16.14
2018-07-05T01:20:59.272Z,16.16
2018-07-05T01:21:59.780Z,16.17
2018-07-05T01:22:59.771Z,16.16
2018-07-05T01:23:59.770Z,16.11
2018-07-05T01:24:59.760Z,16.08
2018-07-05T01:25:59.764Z,16.04
2018-07-05T01:26:59.755Z,16.06
2018-07-05T01:27:59.750Z,15.95
2018-07-05T01:28:59.494Z,15.93
2018-07-05T01:29:59.491Z,15.95
2018-07-05T01:30:59.741Z,15.88
2018-07-05T01:31:59.479Z,15.88
2018-07-05T01:32:59.472Z,15.88
2018-07-05T01:33:59.469Z,15.78
2018-07-05T01:34:59.467Z,15.77
2018-07-05T01:35:59.712Z,15.71
2018-07-05T01:36:59.715Z,15.62
2018-07-05T01:37:59.707Z,15.59
2018-07-05T01:38:59.700Z,15.63
2018-07-05T01:39:59.704Z,15.49
2018-07-05T01:40:59.443Z,15.56
2018-07-05T01:41:59.690Z,15.44
2018-07-05T01:42:59.688Z,15.47
2018-07-05T01:43:59.690Z,15.41
2018-07-05T01:44:59.682Z,15.41
2018-07-05T01:45:59.416Z,15.44
2018-07-05T01:46:59.665Z,15.44
2018-07-05T01:47:59.659Z,15.43
2018-07-05T01:48:59.408Z,15.35
2018-07-05T01:49:59.652Z,15.47
2018-07-05T01:50:59.391Z,15.38
2018-07-05T01:51:59.646Z,15.33
2018-07-05T01:52:59.381Z,15.4
2018-07-05T01:53:59.641Z,15.34
2018-07-05T01:54:59.631Z,15.37
2018-07-05T01:55:59.627Z,15.43
2018-07-05T01:56:59.620Z,15.47
2018-07-05T01:57:59.356Z,15.44
2018-07-05T01:58:59.609Z,15.37
2018-07-05T01:59:59.610Z,15.34
2018-07-05T02:00:59.605Z,15.31
2018-07-05T02:01:59.595Z,15.41
2018-07-05T02:02:59.594Z,15.3
2018-07-05T02:03:59.582Z,15.33
2018-07-05T02:04:59.583Z,15.37
2018-07-05T02:05:59.322Z,15.34
2018-07-05T02:06:59.574Z,15.33
2018-07-05T02:07:59.569Z,15.37
2018-07-05T02:08:59.558Z,15.37
2018-07-05T02:09:59.558Z,15.33
2018-07-05T02:10:59.560Z,15.44
2018-07-05T02:11:59.296Z,15.33
2018-07-05T02:12:59.543Z,15.26
2018-07-05T02:13:59.549Z,15.26
2018-07-05T02:14:59.531Z,15.25
2018-07-05T02:15:59.546Z,15.25
2018-07-05T02:16:59.272Z,15.27
2018-07-05T02:17:59.566Z,15.27
2018-07-05T02:18:59.261Z,15.22
2018-07-05T02:19:59.256Z,15.1
2018-07-05T02:20:59.254Z,15.16
2018-07-05T02:21:59.500Z,15.13
2018-07-05T02:22:59.496Z,15.12
2018-07-05T02:23:59.493Z,15.13
2018-07-05T02:24:59.490Z,15.1
2018-07-05T02:25:59.479Z,14.98
2018-07-05T02:26:59.222Z,15.07
2018-07-05T02:27:59.474Z,15.07
2018-07-05T02:28:59.211Z,14.98
2018-07-05T02:29:59.464Z,15
2018-07-05T02:30:59.479Z,15
2018-07-05T02:31:59.460Z,15.04
2018-07-05T02:32:59.472Z,15
2018-07-05T02:33:59.445Z,15.02
2018-07-05T02:34:59.443Z,15.01
2018-07-05T02:35:59.433Z,15.04
2018-07-05T02:36:59.430Z,15.02
2018-07-05T02:37:59.427Z,15.04
2018-07-05T02:38:59.419Z,15.02
2018-07-05T02:39:59.414Z,15.04
2018-07-05T02:40:59.152Z,15.15
2018-07-05T02:41:59.405Z,15.08
2018-07-05T02:42:59.401Z,15.16
2018-07-05T02:43:59.142Z,15.12
2018-07-05T02:44:59.394Z,15.15
2018-07-05T02:45:59.132Z,15.12
2018-07-05T02:46:59.377Z,15.15
2018-07-05T02:47:59.118Z,15.05
2018-07-05T02:48:59.369Z,15.1
2018-07-05T02:49:59.361Z,15.13
2018-07-05T02:50:59.371Z,15.13
2018-07-05T02:51:59.362Z,15.15
2018-07-05T02:52:59.362Z,15.15
2018-07-05T02:53:59.343Z,15.12
2018-07-05T02:54:59.341Z,15.12
2018-07-05T02:55:59.333Z,15.07
2018-07-05T02:56:59.331Z,15.15
2018-07-05T02:57:59.070Z,15.1
2018-07-05T02:58:59.321Z,15.2
2018-07-05T02:59:59.319Z,15.12
2018-07-05T03:00:59.307Z,15.08
2018-07-05T03:01:59.304Z,15.12
2018-07-05T03:02:59.302Z,15.08
2018-07-05T03:03:59.290Z,15.13
2018-07-05T03:04:59.303Z,15.2
2018-07-05T03:05:59.288Z,15.25
2018-07-05T03:06:59.363Z,15.13
2018-07-05T03:07:59.030Z,15.07
2018-07-05T03:08:59.013Z,15.15
2018-07-05T03:09:59.271Z,15.19
2018-07-05T03:10:59.317Z,15.08
2018-07-05T03:11:59.263Z,15.07
2018-07-05T03:12:59.246Z,15.13
2018-07-05T03:13:58.990Z,15.1
2018-07-05T03:14:59.247Z,15.02
2018-07-05T03:15:59.543Z,15.02
2018-07-05T03:16:59.229Z,15.02
2018-07-05T03:17:59.233Z,15.02
2018-07-05T03:18:59.216Z,15.01
2018-07-05T03:19:59.214Z,15.1
2018-07-05T03:20:59.211Z,15.05
2018-07-05T03:21:59.207Z,15.04
2018-07-05T03:22:59.202Z,15.02
2018-07-05T03:23:59.202Z,15.08
2018-07-05T03:24:59.185Z,15.05
2018-07-05T03:25:59.216Z,15.07
2018-07-05T03:26:59.186Z,15.08
2018-07-05T03:27:58.920Z,15.01
2018-07-05T03:28:58.909Z,15.1
2018-07-05T03:29:58.912Z,15.04
2018-07-05T03:30:59.162Z,15.08
2018-07-05T03:31:59.165Z,15.04
2018-07-05T03:32:59.147Z,15.05
2018-07-05T03:33:59.142Z,15.1
2018-07-05T03:34:59.134Z,15.01
2018-07-05T03:35:59.132Z,15.07
2018-07-05T03:36:59.126Z,15.01
2018-07-05T03:37:59.120Z,15.05
2018-07-05T03:38:58.602Z,15.04
2018-07-05T03:39:58.851Z,15.05
2018-07-05T03:40:58.850Z,14.98
2018-07-05T03:41:59.102Z,15.02
2018-07-05T03:42:59.096Z,15.15
2018-07-05T03:43:59.094Z,15.08
2018-07-05T03:44:59.083Z,15.08
2018-07-05T03:45:58.825Z,15.16
2018-07-05T03:46:59.072Z,15.16
2018-07-05T03:47:59.080Z,15.15
2018-07-05T03:48:59.065Z,15.2
2018-07-05T03:49:59.060Z,15.23
2018-07-05T03:50:58.805Z,15.23
2018-07-05T03:51:59.080Z,15.34
2018-07-05T03:52:58.793Z,15.37
2018-07-05T03:53:59.040Z,15.38
2018-07-05T03:54:59.041Z,15.27
2018-07-05T03:55:59.041Z,15.31
2018-07-05T03:56:58.777Z,15.4
2018-07-05T03:57:59.021Z,15.38
2018-07-05T03:58:59.021Z,15.37
2018-07-05T03:59:58.502Z,15.34
2018-07-05T04:00:59.004Z,15.41
2018-07-05T04:01:59.001Z,15.47
2018-07-05T04:02:59.003Z,15.43
2018-07-05T04:03:58.737Z,15.53
2018-07-05T04:04:58.472Z,15.47
2018-07-05T04:05:58.982Z,15.62
2018-07-05T04:06:58.977Z,15.62
2018-07-05T04:07:58.970Z,15.62
2018-07-05T04:08:58.964Z,15.6
2018-07-05T04:09:58.965Z,15.63
2018-07-05T04:10:58.444Z,15.58
2018-07-05T04:11:58.702Z,15.58
2018-07-05T04:12:58.951Z,15.67
2018-07-05T04:13:58.944Z,15.68
2018-07-05T04:14:58.681Z,15.75
2018-07-05T04:15:58.824Z,15.74
2018-07-05T04:16:58.942Z,15.74
2018-07-05T04:17:58.919Z,15.88
2018-07-05T04:18:58.924Z,15.83
2018-07-05T04:19:58.920Z,15.83
2018-07-05T04:20:58.910Z,15.89
2018-07-05T04:21:58.903Z,15.98
2018-07-05T04:22:58.896Z,16.06
2018-07-05T04:23:58.756Z,16.06
2018-07-05T04:24:58.930Z,16.18
2018-07-05T04:25:58.886Z,16.27
2018-07-05T04:26:58.624Z,16.16
2018-07-05T04:27:58.617Z,16.37
2018-07-05T04:28:58.613Z,16.33
2018-07-05T04:29:58.864Z,16.54
2018-07-05T04:30:58.603Z,16.72
2018-07-05T04:31:58.856Z,16.76
2018-07-05T04:32:58.849Z,16.81
2018-07-05T04:33:58.848Z,16.77
2018-07-05T04:34:58.852Z,16.82
2018-07-05T04:35:58.838Z,16.85
2018-07-05T04:36:58.577Z,17
2018-07-05T04:37:58.578Z,16.92
2018-07-05T04:38:58.836Z,17.07
2018-07-05T04:39:58.821Z,17.07
2018-07-05T04:40:58.817Z,17.1
2018-07-05T04:41:58.557Z,17.21
2018-07-05T04:42:58.806Z,17.17
2018-07-05T04:43:58.807Z,17.27
2018-07-05T04:44:58.794Z,17.36
2018-07-05T04:45:58.791Z,17.31
2018-07-05T04:46:58.795Z,17.36
2018-07-05T04:47:58.995Z,17.45
2018-07-05T04:48:58.779Z,17.47
2018-07-05T04:49:58.788Z,17.54
2018-07-05T04:50:58.775Z,17.52
2018-07-05T04:51:58.773Z,17.45
2018-07-05T04:52:58.509Z,17.52
2018-07-05T04:53:58.504Z,17.6
2018-07-05T04:54:58.759Z,17.55
2018-07-05T04:55:58.764Z,17.68
2018-07-05T04:56:58.758Z,17.79
2018-07-05T04:57:58.752Z,17.87
2018-07-05T04:58:58.489Z,18.01
2018-07-05T04:59:58.485Z,18.13
2018-07-05T05:00:58.741Z,18.06
2018-07-05T05:01:58.739Z,18.34
2018-07-05T05:02:58.479Z,18.23
2018-07-05T05:03:58.725Z,18.32
2018-07-05T05:04:58.721Z,18.45
2018-07-05T05:05:58.729Z,18.5
2018-07-05T05:06:58.720Z,18.63
2018-07-05T05:07:58.461Z,18.65
2018-07-05T05:08:58.711Z,18.72
2018-07-05T05:09:58.710Z,18.91
2018-07-05T05:10:58.456Z,18.89
2018-07-05T05:11:58.700Z,18.96
2018-07-05T05:12:58.700Z,18.93
2018-07-05T05:13:58.698Z,18.96
2018-07-05T05:14:58.949Z,18.99
2018-07-05T05:15:58.691Z,19.05
2018-07-05T05:16:58.688Z,18.96
2018-07-05T05:17:58.685Z,19.05
2018-07-05T05:18:58.921Z,19.05
2018-07-05T05:19:58.427Z,19.06
2018-07-05T05:20:58.422Z,19.16
2018-07-05T05:21:58.679Z,19.2
2018-07-05T05:22:58.674Z,19.35
2018-07-05T05:23:58.672Z,19.47
2018-07-05T05:24:58.678Z,19.5
2018-07-05T05:25:58.665Z,19.49
2018-07-05T05:26:58.407Z,19.56
2018-07-05T05:27:58.663Z,19.5
2018-07-05T05:28:58.665Z,19.64
2018-07-05T05:29:58.793Z,19.63
2018-07-05T05:30:58.657Z,19.7
2018-07-05T05:31:58.657Z,19.65
2018-07-05T05:32:58.393Z,19.86
2018-07-05T05:33:58.398Z,19.85
2018-07-05T05:34:58.645Z,19.83
2018-07-05T05:35:58.389Z,19.92
2018-07-05T05:36:58.646Z,19.92
2018-07-05T05:37:58.383Z,19.98
2018-07-05T05:38:58.799Z,19.97
2018-07-05T05:39:58.381Z,20.04
2018-07-05T05:40:58.380Z,20.02
2018-07-05T05:41:58.634Z,20.2
2018-07-05T05:42:58.631Z,20.23
2018-07-05T05:43:58.637Z,20.27
2018-07-05T05:44:58.625Z,20.29
2018-07-05T05:45:58.376Z,20.37
2018-07-05T05:46:58.366Z,20.32
2018-07-05T05:47:58.365Z,20.27
2018-07-05T05:48:58.620Z,20.29
2018-07-05T05:49:58.105Z,20.3
2018-07-05T05:50:58.615Z,20.37
2018-07-05T05:51:58.615Z,20.3
2018-07-05T05:52:58.613Z,20.37
2018-07-05T05:53:58.611Z,20.37
2018-07-05T05:54:58.353Z,20.4
2018-07-05T05:55:58.609Z,20.4
2018-07-05T05:56:58.608Z,20.38
2018-07-05T05:57:58.604Z,20.46
2018-07-05T05:58:58.601Z,20.51
2018-07-05T05:59:58.344Z,20.44
2018-07-05T06:00:58.605Z,20.54
2018-07-05T06:01:58.866Z,20.54
2018-07-05T06:02:58.594Z,20.54
2018-07-05T06:03:58.339Z,20.61
2018-07-05T06:04:58.085Z,20.64
2018-07-05T06:05:58.600Z,20.6
2018-07-05T06:06:58.594Z,20.58
2018-07-05T06:07:58.688Z,20.63
2018-07-05T06:08:58.595Z,20.71
2018-07-05T06:09:58.590Z,20.75
2018-07-05T06:10:58.333Z,20.74
2018-07-05T06:11:58.587Z,20.82
2018-07-05T06:12:58.601Z,20.74
2018-07-05T06:13:58.593Z,20.81
2018-07-05T06:14:58.333Z,20.74
2018-07-05T06:15:58.607Z,20.78
2018-07-05T06:16:58.588Z,20.79
2018-07-05T06:17:58.585Z,20.83
2018-07-05T06:18:58.329Z,20.86
2018-07-05T06:19:58.583Z,20.91
2018-07-05T06:20:58.579Z,20.93
2018-07-05T06:21:58.321Z,20.86
2018-07-05T06:22:58.322Z,20.98
2018-07-05T06:23:58.317Z,21.01
2018-07-05T06:24:58.569Z,21.06
2018-07-05T06:25:58.573Z,21.11
2018-07-05T06:26:58.318Z,21.08
2018-07-05T06:27:58.579Z,21.13
2018-07-05T06:28:58.319Z,21.06
2018-07-05T06:29:58.318Z,21.11
2018-07-05T06:30:58.580Z,21.18
2018-07-05T06:31:58.312Z,21.08
2018-07-05T06:32:58.316Z,21.15
2018-07-05T06:33:58.570Z,21.16
2018-07-05T06:34:58.573Z,21.23
2018-07-05T06:35:58.054Z,21.23
2018-07-05T06:36:58.313Z,21.23
2018-07-05T06:37:58.312Z,21.34
2018-07-05T06:38:58.563Z,21.43
2018-07-05T06:39:58.582Z,21.48
2018-07-05T06:40:58.312Z,21.59
2018-07-05T06:41:58.561Z,21.56
2018-07-05T06:42:58.565Z,21.59
2018-07-05T06:43:58.563Z,21.7
2018-07-05T06:44:58.567Z,21.93
2018-07-05T06:45:58.568Z,22.39
2018-07-05T06:46:58.566Z,23.32
2018-07-05T06:47:58.564Z,24.34
2018-07-05T06:48:58.566Z,25.41
2018-07-05T06:49:58.310Z,26.42
2018-07-05T06:50:58.312Z,27.43
2018-07-05T06:51:58.571Z,28.23
2018-07-05T06:52:58.382Z,28.92
2018-07-05T06:53:58.572Z,29.48
2018-07-05T06:54:58.574Z,30.04
2018-07-05T06:55:58.576Z,30.56
2018-07-05T06:56:58.062Z,30.99
2018-07-05T06:57:58.322Z,31.21
2018-07-05T06:58:58.582Z,31.31
2018-07-05T06:59:58.590Z,31.65
2018-07-05T07:00:58.335Z,32.01
2018-07-05T07:01:58.593Z,32.12
2018-07-05T07:02:58.600Z,32.56
2018-07-05T07:03:58.602Z,32.99
2018-07-05T07:04:58.617Z,33.01
2018-07-05T07:05:58.364Z,32.96
2018-07-05T07:06:58.113Z,33.18
2018-07-05T07:07:58.713Z,33.55
2018-07-05T07:08:58.633Z,33.84
2018-07-05T07:09:58.386Z,34.15
2018-07-05T07:10:58.392Z,34.55
2018-07-05T07:11:58.653Z,34.72
2018-07-05T07:12:58.657Z,34.87
2018-07-05T07:13:58.668Z,34.93
2018-07-05T07:14:58.421Z,35.01
2018-07-05T07:15:58.826Z,35.13
2018-07-05T07:16:58.689Z,35.26
2018-07-05T07:17:58.443Z,35.15
2018-07-05T07:18:58.706Z,35.18
2018-07-05T07:19:58.714Z,35.45
2018-07-05T07:20:58.746Z,35.65
2018-07-05T07:21:58.471Z,35.52
2018-07-05T07:22:58.743Z,35.76
2018-07-05T07:23:58.756Z,35.77
2018-07-05T07:24:58.754Z,35.95
2018-07-05T07:25:58.763Z,36.02
2018-07-05T07:26:58.778Z,36.22
2018-07-05T07:27:58.781Z,36.34
2018-07-05T07:28:58.793Z,36.24
2018-07-05T07:29:58.809Z,36.24
2018-07-05T07:30:58.813Z,36.21
2018-07-05T07:31:59.075Z,35.99
2018-07-05T07:32:58.828Z,35.87
2018-07-05T07:33:58.840Z,35.76
2018-07-05T07:34:58.592Z,35.67
2018-07-05T07:35:58.603Z,35.67
2018-07-05T07:36:58.868Z,35.99
2018-07-05T07:37:58.624Z,36.22
2018-07-05T07:38:58.893Z,36.37
2018-07-05T07:39:58.641Z,36.43
2018-07-05T07:40:58.916Z,36.37
2018-07-05T07:41:58.920Z,36.28
2018-07-05T07:42:58.929Z,36.12
2018-07-05T07:43:58.941Z,35.95
2018-07-05T07:44:58.953Z,35.83
2018-07-05T07:45:58.963Z,35.68
2018-07-05T07:46:58.969Z,35.82
2018-07-05T07:47:58.976Z,35.9
2018-07-05T07:48:59.004Z,36.22
2018-07-05T07:49:59.001Z,36.34
2018-07-05T07:50:58.759Z,36.51
2018-07-05T07:51:59.024Z,36.63
2018-07-05T07:52:58.785Z,36.7
2018-07-05T07:53:59.047Z,36.71
2018-07-05T07:54:59.054Z,36.88
2018-07-05T07:55:58.556Z,36.77
2018-07-05T07:56:59.083Z,36.65
2018-07-05T07:57:58.830Z,36.56
2018-07-05T07:58:59.101Z,36.41
2018-07-05T07:59:59.111Z,36.49
2018-07-05T08:00:59.122Z,36.49
2018-07-05T08:01:59.133Z,36.67
2018-07-05T08:02:59.143Z,36.65
2018-07-05T08:03:59.154Z,36.56
2018-07-05T08:04:58.910Z,36.53
2018-07-05T08:05:59.184Z,36.51
2018-07-05T08:06:59.181Z,36.52
2018-07-05T08:07:59.364Z,36.62
2018-07-05T08:08:59.204Z,36.53
2018-07-05T08:09:59.217Z,36.56
2018-07-05T08:10:58.982Z,36.52
2018-07-05T08:11:59.238Z,36.7
2018-07-05T08:12:58.992Z,36.73
2018-07-05T08:13:59.254Z,36.7
2018-07-05T08:14:59.307Z,36.52
2018-07-05T08:15:59.277Z,36.36
2018-07-05T08:16:59.031Z,36.26
2018-07-05T08:17:59.037Z,35.92
2018-07-05T08:18:59.046Z,35.58
2018-07-05T08:19:59.330Z,35.23
2018-07-05T08:20:59.321Z,34.69
2018-07-05T08:21:59.333Z,34.14
2018-07-05T08:22:59.337Z,33.55
2018-07-05T08:23:59.347Z,32.99
2018-07-05T08:24:59.350Z,32.79
2018-07-05T08:25:59.362Z,32.27
2018-07-05T08:26:59.384Z,32
2018-07-05T08:27:58.863Z,31.37
2018-07-05T08:28:59.404Z,30.99
2018-07-05T08:29:59.391Z,30.54
2018-07-05T08:30:59.392Z,30.14
2018-07-05T08:31:59.403Z,29.98
2018-07-05T08:32:59.408Z,29.7
2018-07-05T08:33:59.421Z,29.4
2018-07-05T08:34:59.419Z,29.33
2018-07-05T08:35:59.439Z,29.03
2018-07-05T08:36:59.437Z,28.97
2018-07-05T08:37:59.364Z,28.88
2018-07-05T08:38:59.453Z,28.85
2018-07-05T08:39:59.452Z,28.8
2018-07-05T08:40:59.468Z,28.88
2018-07-05T08:41:59.470Z,28.83
2018-07-05T08:42:59.471Z,28.76
2018-07-05T08:43:59.474Z,28.58
2018-07-05T08:44:59.618Z,28.41
2018-07-05T08:45:59.491Z,28.41
2018-07-05T08:46:59.501Z,28.35
2018-07-05T08:47:59.513Z,28.23
2018-07-05T08:48:59.504Z,28.18
2018-07-05T08:49:59.508Z,28.16
2018-07-05T08:50:59.515Z,28.12
2018-07-05T08:51:59.521Z,28.23
2018-07-05T08:52:59.521Z,28.27
2018-07-05T08:53:59.272Z,28.42
2018-07-05T08:54:59.279Z,28.55
2018-07-05T08:55:59.554Z,28.63
2018-07-05T08:56:59.545Z,28.55
2018-07-05T08:57:59.553Z,28.53
2018-07-05T08:58:59.553Z,28.55
2018-07-05T08:59:59.565Z,28.57
2018-07-05T09:00:59.308Z,28.7
2018-07-05T09:01:59.567Z,28.53
2018-07-05T09:02:59.579Z,28.46
2018-07-05T09:03:59.576Z,28.45
2018-07-05T09:04:59.330Z,28.43
2018-07-05T09:05:59.597Z,28.48
2018-07-05T09:06:59.595Z,28.39
2018-07-05T09:07:59.345Z,28.38
2018-07-05T09:08:59.346Z,28.33
2018-07-05T09:09:59.368Z,28.27
2018-07-05T09:10:59.615Z,28.18
2018-07-05T09:11:59.881Z,28.27
2018-07-05T09:12:59.621Z,28.18
2018-07-05T09:13:59.635Z,28.26
2018-07-05T09:14:59.632Z,28.33
2018-07-05T09:15:59.642Z,28.33
2018-07-05T09:16:59.643Z,28.35
2018-07-05T09:18:00.022Z,28.33
2018-07-05T09:18:59.653Z,28.36
2018-07-05T09:19:59.403Z,28.38
2018-07-05T09:20:59.661Z,28.35
2018-07-05T09:21:59.412Z,28.26
2018-07-05T09:22:59.416Z,28.31
2018-07-05T09:23:59.420Z,28.36
2018-07-05T09:24:59.678Z,28.53
2018-07-05T09:25:59.686Z,28.6
2018-07-05T09:26:59.690Z,28.67
2018-07-05T09:27:59.713Z,28.67
2018-07-05T09:28:59.441Z,28.79
2018-07-05T09:29:59.706Z,28.68
2018-07-05T09:30:59.705Z,28.65
2018-07-05T09:31:59.713Z,28.72
2018-07-05T09:32:59.727Z,28.67
2018-07-05T09:33:59.726Z,28.72
2018-07-05T09:34:59.730Z,28.79
2018-07-05T09:35:59.765Z,28.85
2018-07-05T09:36:59.743Z,28.82
2018-07-05T09:37:59.520Z,28.9
2018-07-05T09:38:59.489Z,28.94
2018-07-05T09:39:59.490Z,28.95
2018-07-05T09:40:59.758Z,29.03
2018-07-05T09:41:59.776Z,29.13
2018-07-05T09:42:59.502Z,29.15
2018-07-05T09:43:59.252Z,29.33
2018-07-05T09:44:59.770Z,29.29
2018-07-05T09:45:59.521Z,29.21
2018-07-05T09:46:59.620Z,29.3
2018-07-05T09:47:59.781Z,29.39
2018-07-05T09:48:59.797Z,29.45
2018-07-05T09:49:59.541Z,29.58
2018-07-05T09:50:59.801Z,29.61
2018-07-05T09:51:59.802Z,29.61
2018-07-05T09:52:59.553Z,29.63
2018-07-05T09:53:59.555Z,29.81
2018-07-05T09:54:59.562Z,29.91
2018-07-05T09:55:59.823Z,30.1
2018-07-05T09:56:59.828Z,30.16
2018-07-05T09:57:59.931Z,30.18
2018-07-05T09:58:59.586Z,30.19
2018-07-05T09:59:59.584Z,30.24
2018-07-05T10:00:59.850Z,30.22
2018-07-05T10:01:59.597Z,30.25
2018-07-05T10:02:59.860Z,30.32
2018-07-05T10:03:59.874Z,30.26
2018-07-05T10:04:59.871Z,30.29
2018-07-05T10:05:59.886Z,30.21
2018-07-05T10:06:59.884Z,29.85
2018-07-05T10:07:59.374Z,29.65
2018-07-05T10:08:59.638Z,29.35
2018-07-05T10:09:59.902Z,29.13
2018-07-05T10:10:59.387Z,29.1
2018-07-05T10:11:59.915Z,29.11
2018-07-05T10:13:00.163Z,29.33
2018-07-05T10:13:59.926Z,29.36
2018-07-05T10:14:59.927Z,29.45
2018-07-05T10:15:59.930Z,29.43
2018-07-05T10:16:59.939Z,29.63
2018-07-05T10:17:59.942Z,29.55
2018-07-05T10:18:59.735Z,29.4
2018-07-05T10:19:59.696Z,29.4
2018-07-05T10:20:59.954Z,29.48
2018-07-05T10:21:59.702Z,29.43
2018-07-05T10:22:59.716Z,29.39
2018-07-05T10:23:59.710Z,29.38
2018-07-05T10:24:59.720Z,29.38
2018-07-05T10:25:59.724Z,29.06
2018-07-05T10:27:00.183Z,28.85
2018-07-05T10:27:59.738Z,28.76
2018-07-05T10:28:59.738Z,28.43
2018-07-05T10:30:00.005Z,28.35
2018-07-05T10:31:00.012Z,28.14
2018-07-05T10:32:00.028Z,28.14
2018-07-05T10:33:00.227Z,28.12
2018-07-05T10:33:59.768Z,28.09
2018-07-05T10:34:59.768Z,28.18
2018-07-05T10:36:00.031Z,28.27
2018-07-05T10:37:00.035Z,28.48
2018-07-05T10:38:00.043Z,28.55
2018-07-05T10:39:00.047Z,28.67
2018-07-05T10:39:59.797Z,28.79
2018-07-05T10:41:00.055Z,29.06
2018-07-05T10:42:00.066Z,29.45
2018-07-05T10:42:59.814Z,29.63
2018-07-05T10:44:00.079Z,29.85
2018-07-05T10:45:00.084Z,30.09
2018-07-05T10:46:00.202Z,30.13
2018-07-05T10:47:00.085Z,30.11
2018-07-05T10:48:00.090Z,30.03
2018-07-05T10:48:59.843Z,29.85
2018-07-05T10:49:59.850Z,29.58
2018-07-05T10:51:00.109Z,29.57
2018-07-05T10:52:00.112Z,29.45
2018-07-05T10:52:59.864Z,29.29
2018-07-05T10:54:00.126Z,29.08
2018-07-05T10:55:00.128Z,29.06
2018-07-05T10:56:00.139Z,29.02
2018-07-05T10:57:00.142Z,28.97
2018-07-05T10:58:00.146Z,29.08
2018-07-05T10:59:00.148Z,29.02
2018-07-05T11:00:00.165Z,28.92
2018-07-05T11:01:00.236Z,28.86
2018-07-05T11:02:00.170Z,28.85
2018-07-05T11:03:00.174Z,28.86
2018-07-05T11:04:00.174Z,28.9
2018-07-05T11:05:00.194Z,29.13
2018-07-05T11:05:59.675Z,29.17
2018-07-05T11:06:59.937Z,29.08
2018-07-05T11:07:59.952Z,29.06
2018-07-05T11:09:00.202Z,28.91
2018-07-05T11:09:59.948Z,28.79
2018-07-05T11:11:00.212Z,28.68
2018-07-05T11:11:59.966Z,28.7
2018-07-05T11:13:00.225Z,28.64
2018-07-05T11:14:00.229Z,28.57
2018-07-05T11:15:00.245Z,28.43
2018-07-05T11:15:59.982Z,28.31
2018-07-05T11:17:00.247Z,28.24
2018-07-05T11:18:00.251Z,28.21
2018-07-05T11:18:59.998Z,28.05
2018-07-05T11:20:00.259Z,27.98
2018-07-05T11:21:00.471Z,28.03
2018-07-05T11:22:00.274Z,28.06
2018-07-05T11:23:00.278Z,28.23
2018-07-05T11:23:59.765Z,28.36
2018-07-05T11:25:00.283Z,28.54
2018-07-05T11:26:00.286Z,28.53
2018-07-05T11:27:00.305Z,28.8
2018-07-05T11:28:00.297Z,28.94
2018-07-05T11:29:00.301Z,28.95
2018-07-05T11:30:00.312Z,29.08
2018-07-05T11:31:00.313Z,29.06
2018-07-05T11:32:00.316Z,29.13
2018-07-05T11:33:00.324Z,29.21
2018-07-05T11:34:00.067Z,29.32
2018-07-05T11:35:00.075Z,29.4
2018-07-05T11:36:00.344Z,29.4
2018-07-05T11:37:00.348Z,29.47
2018-07-05T11:38:00.092Z,29.52
2018-07-05T11:39:00.357Z,29.6
2018-07-05T11:40:00.356Z,29.66
2018-07-05T11:41:00.363Z,29.88
2018-07-05T11:42:00.374Z,29.91
2018-07-05T11:43:00.375Z,29.89
2018-07-05T11:44:00.416Z,29.92
2018-07-05T11:45:00.383Z,29.85
2018-07-05T11:46:00.388Z,29.85
2018-07-05T11:47:00.403Z,29.91
2018-07-05T11:48:00.907Z,29.87
2018-07-05T11:49:00.413Z,29.82
2018-07-05T11:50:00.419Z,29.75
2018-07-05T11:51:00.423Z,29.6
2018-07-05T11:52:00.168Z,29.51
2018-07-05T11:53:00.438Z,29.32
2018-07-05T11:54:00.434Z,29.26
2018-07-05T11:55:00.519Z,28.97
2018-07-05T11:56:00.197Z,28.95
2018-07-05T11:57:00.456Z,28.86
2018-07-05T11:58:00.205Z,28.85
2018-07-05T11:59:00.462Z,28.73
2018-07-05T12:00:00.468Z,28.6
2018-07-05T12:01:00.472Z,28.51
2018-07-05T12:02:00.308Z,28.42
2018-07-05T12:03:00.732Z,28.39
2018-07-05T12:04:00.244Z,28.31
2018-07-05T12:05:00.239Z,28.36
2018-07-05T12:06:00.516Z,28.27
2018-07-05T12:07:00.502Z,28.35
2018-07-05T12:08:00.514Z,28.38
2018-07-05T12:09:00.517Z,28.51
2018-07-05T12:10:00.522Z,28.49
2018-07-05T12:11:00.526Z,28.53
2018-07-05T12:12:00.539Z,28.49
2018-07-05T12:13:00.539Z,28.57
2018-07-05T12:14:00.544Z,28.54
2018-07-05T12:15:00.552Z,28.57
2018-07-05T12:16:00.560Z,28.6
2018-07-05T12:17:00.560Z,28.67
2018-07-05T12:18:00.306Z,28.6
2018-07-05T12:19:00.310Z,28.51
2018-07-05T12:20:00.573Z,28.67
2018-07-05T12:21:00.578Z,28.58
2018-07-05T12:22:00.335Z,28.68
2018-07-05T12:23:00.080Z,28.78
2018-07-05T12:24:00.801Z,28.85
2018-07-05T12:25:00.605Z,29.01
2018-07-05T12:26:00.605Z,29.08
2018-07-05T12:27:00.619Z,29.29
2018-07-05T12:28:00.364Z,29.42
2018-07-05T12:29:00.665Z,29.66
2018-07-05T12:30:00.633Z,29.75
2018-07-05T12:31:00.640Z,29.88
2018-07-05T12:32:00.384Z,30.02
2018-07-05T12:33:00.649Z,30.11
2018-07-05T12:34:00.396Z,30.19
2018-07-05T12:35:00.668Z,30.21
2018-07-05T12:36:00.665Z,30.4
2018-07-05T12:37:00.669Z,30.57
2018-07-05T12:38:00.685Z,30.71
2018-07-05T12:39:00.684Z,30.71
2018-07-05T12:40:00.692Z,30.97
2018-07-05T12:41:00.695Z,31.04
2018-07-05T12:42:00.705Z,31.1
2018-07-05T12:43:00.711Z,31.21
2018-07-05T12:44:00.715Z,31.28
2018-07-05T12:45:00.722Z,31.44
2018-07-05T12:46:00.470Z,31.52
2018-07-05T12:47:00.739Z,31.55
2018-07-05T12:48:00.747Z,31.59
2018-07-05T12:49:00.758Z,31.43
2018-07-05T12:50:00.500Z,31.22
2018-07-05T12:51:00.506Z,31
2018-07-05T12:52:00.609Z,30.7
2018-07-05T12:53:00.771Z,30.66
2018-07-05T12:54:00.269Z,30.56
2018-07-05T12:55:00.531Z,30.51